sensor_id;sensor_type;location;lat;lon;timestamp;P1;durP1;ratioP1;P2;durP2;ratioP2
40501;SDS011;29631;49.168;9.848;2023-03-19T00:00:20;3.88;;;2.97;;
40501;SDS011;29631;49.168;9.848;2023-03-19T00:02:46;4.47;;;3.28;;
40501;SDS011;29631;49.168;9.848;2023-03-19T00:05:15;3.17;;;2.90;;
40501;SDS011;29631;49.168;9.848;2023-03-19T00:07:42;4.20;;;3.22;;
40501;SDS011;29631;49.168;9.848;2023-03-19T00:10:08;3.78;;;3.47;;
40501;SDS011;29631;49.168;9.848;2023-03-19T00:12:35;4.07;;;3.72;;
40501;SDS011;29631;49.168;9.848;2023-03-19T00:15:01;3.67;;;3.38;;
40501;SDS011;29631;49.168;9.848;2023-03-19T00:17:27;5.07;;;3.58;;
40501;SDS011;29631;49.168;9.848;2023-03-19T00:19:53;3.63;;;3.33;;
40501;SDS011;29631;49.168;9.848;2023-03-19T00:22:18;3.53;;;3.30;;
40501;SDS011;29631;49.168;9.848;2023-03-19T00:24:44;3.70;;;3.40;;
40501;SDS011;29631;49.168;9.848;2023-03-19T00:27:10;3.80;;;3.50;;
40501;SDS011;29631;49.168;9.848;2023-03-19T00:29:35;3.63;;;3.33;;
40501;SDS011;29631;49.168;9.848;2023-03-19T00:32:01;4.07;;;3.60;;
40501;SDS011;29631;49.168;9.848;2023-03-19T00:34:27;3.53;;;3.22;;
40501;SDS011;29631;49.168;9.848;2023-03-19T00:36:53;3.70;;;3.40;;
40501;SDS011;29631;49.168;9.848;2023-03-19T00:39:20;3.75;;;3.42;;
40501;SDS011;29631;49.168;9.848;2023-03-19T00:41:46;4.43;;;3.17;;
40501;SDS011;29631;49.168;9.848;2023-03-19T00:44:14;4.20;;;3.38;;
40501;SDS011;29631;49.168;9.848;2023-03-19T00:46:42;3.50;;;3.20;;
40501;SDS011;29631;49.168;9.848;2023-03-19T00:49:09;3.50;;;3.20;;
40501;SDS011;29631;49.168;9.848;2023-03-19T00:51:35;4.15;;;3.47;;
40501;SDS011;29631;49.168;9.848;2023-03-19T00:54:01;3.65;;;3.17;;
40501;SDS011;29631;49.168;9.848;2023-03-19T00:56:27;3.78;;;3.47;;
40501;SDS011;29631;49.168;9.848;2023-03-19T00:58:53;4.45;;;4.05;;
40501;SDS011;29631;49.168;9.848;2023-03-19T01:01:21;4.30;;;3.90;;
40501;SDS011;29631;49.168;9.848;2023-03-19T01:03:46;4.28;;;3.63;;
40501;SDS011;29631;49.168;9.848;2023-03-19T01:06:13;3.10;;;2.90;;
40501;SDS011;29631;49.168;9.848;2023-03-19T01:08:39;3.60;;;3.35;;
40501;SDS011;29631;49.168;9.848;2023-03-19T01:11:06;3.72;;;3.38;;
40501;SDS011;29631;49.168;9.848;2023-03-19T01:13:35;4.82;;;3.53;;
40501;SDS011;29631;49.168;9.848;2023-03-19T01:16:01;5.03;;;3.67;;
40501;SDS011;29631;49.168;9.848;2023-03-19T01:18:27;4.15;;;3.75;;
40501;SDS011;29631;49.168;9.848;2023-03-19T01:20:53;4.10;;;3.80;;
40501;SDS011;29631;49.168;9.848;2023-03-19T01:23:19;3.88;;;3.58;;
40501;SDS011;29631;49.168;9.848;2023-03-19T01:25:44;3.80;;;3.50;;
40501;SDS011;29631;49.168;9.848;2023-03-19T01:28:11;3.53;;;3.22;;
40501;SDS011;29631;49.168;9.848;2023-03-19T01:30:37;3.60;;;3.30;;
40501;SDS011;29631;49.168;9.848;2023-03-19T01:33:04;3.72;;;3.22;;
40501;SDS011;29631;49.168;9.848;2023-03-19T01:35:31;4.07;;;3.67;;
40501;SDS011;29631;49.168;9.848;2023-03-19T01:37:57;3.78;;;3.40;;
40501;SDS011;29631;49.168;9.848;2023-03-19T01:40:23;3.50;;;3.20;;
40501;SDS011;29631;49.168;9.848;2023-03-19T01:42:56;3.50;;;3.22;;
40501;SDS011;29631;49.168;9.848;2023-03-19T01:45:38;3.53;;;3.25;;
40501;SDS011;29631;49.168;9.848;2023-03-19T01:48:07;3.58;;;3.28;;
40501;SDS011;29631;49.168;9.848;2023-03-19T01:51:03;4.30;;;3.55;;
40501;SDS011;29631;49.168;9.848;2023-03-19T01:53:31;3.88;;;3.58;;
40501;SDS011;29631;49.168;9.848;2023-03-19T01:56:06;4.00;;;3.60;;
40501;SDS011;29631;49.168;9.848;2023-03-19T01:58:35;3.90;;;3.60;;
40501;SDS011;29631;49.168;9.848;2023-03-19T02:01:04;4.05;;;3.75;;
40501;SDS011;29631;49.168;9.848;2023-03-19T02:03:29;3.50;;;3.30;;
40501;SDS011;29631;49.168;9.848;2023-03-19T02:05:57;4.07;;;3.78;;
40501;SDS011;29631;49.168;9.848;2023-03-19T02:08:24;3.97;;;3.67;;
40501;SDS011;29631;49.168;9.848;2023-03-19T02:10:51;3.65;;;3.35;;
40501;SDS011;29631;49.168;9.848;2023-03-19T02:13:19;4.13;;;3.47;;
40501;SDS011;29631;49.168;9.848;2023-03-19T02:15:46;3.75;;;3.45;;
40501;SDS011;29631;49.168;9.848;2023-03-19T02:18:14;3.80;;;3.20;;
40501;SDS011;29631;49.168;9.848;2023-03-19T02:23:26;3.33;;;3.03;;
40501;SDS011;29631;49.168;9.848;2023-03-19T02:26:22;4.07;;;2.90;;
40501;SDS011;29631;49.168;9.848;2023-03-19T02:28:51;3.17;;;2.97;;
40501;SDS011;29631;49.168;9.848;2023-03-19T02:31:17;2.83;;;2.63;;
40501;SDS011;29631;49.168;9.848;2023-03-19T02:33:55;2.88;;;2.63;;
40501;SDS011;29631;49.168;9.848;2023-03-19T02:36:23;3.28;;;3.08;;
40501;SDS011;29631;49.168;9.848;2023-03-19T02:38:56;3.30;;;3.00;;
40501;SDS011;29631;49.168;9.848;2023-03-19T02:41:26;3.38;;;3.10;;
40501;SDS011;29631;49.168;9.848;2023-03-19T02:43:53;3.40;;;3.10;;
40501;SDS011;29631;49.168;9.848;2023-03-19T02:46:20;3.05;;;2.85;;
40501;SDS011;29631;49.168;9.848;2023-03-19T02:48:46;3.47;;;3.17;;
40501;SDS011;29631;49.168;9.848;2023-03-19T02:51:12;3.47;;;3.05;;
40501;SDS011;29631;49.168;9.848;2023-03-19T02:53:37;3.30;;;3.10;;
40501;SDS011;29631;49.168;9.848;2023-03-19T02:56:03;3.67;;;3.38;;
40501;SDS011;29631;49.168;9.848;2023-03-19T02:58:29;3.58;;;3.28;;
40501;SDS011;29631;49.168;9.848;2023-03-19T03:00:55;3.72;;;3.42;;
40501;SDS011;29631;49.168;9.848;2023-03-19T03:03:21;3.47;;;3.28;;
40501;SDS011;29631;49.168;9.848;2023-03-19T03:05:47;3.55;;;3.22;;
40501;SDS011;29631;49.168;9.848;2023-03-19T03:08:12;6.18;;;3.13;;
40501;SDS011;29631;49.168;9.848;2023-03-19T03:10:38;3.13;;;2.92;;
40501;SDS011;29631;49.168;9.848;2023-03-19T03:13:04;7.28;;;6.57;;
40501;SDS011;29631;49.168;9.848;2023-03-19T03:15:29;5.57;;;5.00;;
40501;SDS011;29631;49.168;9.848;2023-03-19T03:17:55;5.70;;;3.72;;
40501;SDS011;29631;49.168;9.848;2023-03-19T03:20:21;4.40;;;3.60;;
40501;SDS011;29631;49.168;9.848;2023-03-19T03:22:47;3.33;;;3.13;;
40501;SDS011;29631;49.168;9.848;2023-03-19T03:25:13;3.33;;;3.10;;
40501;SDS011;29631;49.168;9.848;2023-03-19T03:27:39;3.95;;;3.08;;
40501;SDS011;29631;49.168;9.848;2023-03-19T03:30:05;3.38;;;2.88;;
40501;SDS011;29631;49.168;9.848;2023-03-19T03:32:35;3.50;;;3.28;;
40501;SDS011;29631;49.168;9.848;2023-03-19T03:35:02;3.97;;;2.75;;
40501;SDS011;29631;49.168;9.848;2023-03-19T03:37:29;3.15;;;2.85;;
40501;SDS011;29631;49.168;9.848;2023-03-19T03:39:54;2.97;;;2.78;;
40501;SDS011;29631;49.168;9.848;2023-03-19T03:42:21;2.88;;;2.60;;
40501;SDS011;29631;49.168;9.848;2023-03-19T03:44:46;4.32;;;2.88;;
40501;SDS011;29631;49.168;9.848;2023-03-19T03:47:12;2.65;;;2.45;;
40501;SDS011;29631;49.168;9.848;2023-03-19T03:49:38;3.00;;;2.80;;
40501;SDS011;29631;49.168;9.848;2023-03-19T03:52:04;3.20;;;3.00;;
40501;SDS011;29631;49.168;9.848;2023-03-19T03:54:30;3.20;;;3.00;;
40501;SDS011;29631;49.168;9.848;2023-03-19T03:56:56;3.00;;;2.80;;
40501;SDS011;29631;49.168;9.848;2023-03-19T03:59:21;4.47;;;3.05;;
40501;SDS011;29631;49.168;9.848;2023-03-19T04:01:49;4.35;;;2.83;;
40501;SDS011;29631;49.168;9.848;2023-03-19T04:04:15;3.30;;;3.00;;
40501;SDS011;29631;49.168;9.848;2023-03-19T04:06:40;3.10;;;2.90;;
40501;SDS011;29631;49.168;9.848;2023-03-19T04:09:06;2.90;;;2.58;;
40501;SDS011;29631;49.168;9.848;2023-03-19T04:11:33;3.53;;;3.22;;
40501;SDS011;29631;49.168;9.848;2023-03-19T04:14:00;3.83;;;3.00;;
40501;SDS011;29631;49.168;9.848;2023-03-19T04:16:27;2.95;;;2.75;;
40501;SDS011;29631;49.168;9.848;2023-03-19T04:18:53;3.65;;;3.35;;
40501;SDS011;29631;49.168;9.848;2023-03-19T04:21:19;3.50;;;3.03;;
40501;SDS011;29631;49.168;9.848;2023-03-19T04:23:45;3.55;;;3.33;;
40501;SDS011;29631;49.168;9.848;2023-03-19T04:26:11;3.53;;;3.20;;
40501;SDS011;29631;49.168;9.848;2023-03-19T04:28:37;3.58;;;3.15;;
40501;SDS011;29631;49.168;9.848;2023-03-19T04:31:04;3.58;;;3.05;;
40501;SDS011;29631;49.168;9.848;2023-03-19T04:33:32;3.58;;;3.28;;
40501;SDS011;29631;49.168;9.848;2023-03-19T04:35:59;3.13;;;2.92;;
40501;SDS011;29631;49.168;9.848;2023-03-19T04:38:25;3.40;;;2.90;;
40501;SDS011;29631;49.168;9.848;2023-03-19T04:40:52;3.50;;;3.20;;
40501;SDS011;29631;49.168;9.848;2023-03-19T04:43:18;3.95;;;3.65;;
40501;SDS011;29631;49.168;9.848;2023-03-19T04:45:44;5.63;;;3.72;;
40501;SDS011;29631;49.168;9.848;2023-03-19T04:48:10;5.28;;;4.78;;
40501;SDS011;29631;49.168;9.848;2023-03-19T04:50:36;3.92;;;3.63;;
40501;SDS011;29631;49.168;9.848;2023-03-19T04:53:02;3.72;;;3.53;;
40501;SDS011;29631;49.168;9.848;2023-03-19T04:55:28;3.50;;;3.20;;
40501;SDS011;29631;49.168;9.848;2023-03-19T04:57:54;3.40;;;3.10;;
40501;SDS011;29631;49.168;9.848;2023-03-19T05:00:20;3.65;;;3.22;;
40501;SDS011;29631;49.168;9.848;2023-03-19T05:02:46;4.30;;;3.78;;
40501;SDS011;29631;49.168;9.848;2023-03-19T05:05:11;3.58;;;2.85;;
40501;SDS011;29631;49.168;9.848;2023-03-19T05:07:37;6.32;;;3.33;;
40501;SDS011;29631;49.168;9.848;2023-03-19T05:10:05;4.15;;;3.20;;
40501;SDS011;29631;49.168;9.848;2023-03-19T05:12:32;3.88;;;2.65;;
40501;SDS011;29631;49.168;9.848;2023-03-19T05:14:58;4.65;;;3.10;;
40501;SDS011;29631;49.168;9.848;2023-03-19T05:17:24;3.65;;;2.88;;
40501;SDS011;29631;49.168;9.848;2023-03-19T05:19:50;3.35;;;3.03;;
40501;SDS011;29631;49.168;9.848;2023-03-19T05:22:18;2.95;;;2.75;;
40501;SDS011;29631;49.168;9.848;2023-03-19T05:24:44;2.63;;;2.45;;
40501;SDS011;29631;49.168;9.848;2023-03-19T05:27:10;3.25;;;2.38;;
40501;SDS011;29631;49.168;9.848;2023-03-19T05:29:36;2.85;;;2.60;;
40501;SDS011;29631;49.168;9.848;2023-03-19T05:32:02;3.05;;;2.15;;
40501;SDS011;29631;49.168;9.848;2023-03-19T05:34:29;2.40;;;2.00;;
40501;SDS011;29631;49.168;9.848;2023-03-19T05:36:55;2.05;;;1.95;;
40501;SDS011;29631;49.168;9.848;2023-03-19T05:39:21;2.38;;;2.28;;
40501;SDS011;29631;49.168;9.848;2023-03-19T05:41:47;3.53;;;2.13;;
40501;SDS011;29631;49.168;9.848;2023-03-19T05:44:13;3.05;;;2.35;;
40501;SDS011;29631;49.168;9.848;2023-03-19T05:46:40;2.60;;;2.40;;
40501;SDS011;29631;49.168;9.848;2023-03-19T05:49:07;2.25;;;2.05;;
40501;SDS011;29631;49.168;9.848;2023-03-19T05:51:33;2.55;;;1.90;;
40501;SDS011;29631;49.168;9.848;2023-03-19T05:53:59;2.78;;;2.58;;
40501;SDS011;29631;49.168;9.848;2023-03-19T05:56:25;2.40;;;2.30;;
40501;SDS011;29631;49.168;9.848;2023-03-19T05:58:51;2.47;;;2.30;;
40501;SDS011;29631;49.168;9.848;2023-03-19T06:01:17;3.15;;;2.35;;
40501;SDS011;29631;49.168;9.848;2023-03-19T06:03:43;2.22;;;2.13;;
40501;SDS011;29631;49.168;9.848;2023-03-19T06:06:09;2.65;;;2.42;;
40501;SDS011;29631;49.168;9.848;2023-03-19T06:08:36;2.60;;;2.40;;
40501;SDS011;29631;49.168;9.848;2023-03-19T06:11:02;3.22;;;2.55;;
40501;SDS011;29631;49.168;9.848;2023-03-19T06:13:28;2.40;;;2.17;;
40501;SDS011;29631;49.168;9.848;2023-03-19T06:15:53;3.22;;;2.60;;
40501;SDS011;29631;49.168;9.848;2023-03-19T06:18:19;2.40;;;2.30;;
40501;SDS011;29631;49.168;9.848;2023-03-19T06:20:45;1.80;;;1.70;;
40501;SDS011;29631;49.168;9.848;2023-03-19T06:23:12;2.50;;;2.15;;
40501;SDS011;29631;49.168;9.848;2023-03-19T06:25:38;2.50;;;2.30;;
40501;SDS011;29631;49.168;9.848;2023-03-19T06:28:04;1.98;;;1.88;;
40501;SDS011;29631;49.168;9.848;2023-03-19T06:30:30;2.20;;;2.10;;
40501;SDS011;29631;49.168;9.848;2023-03-19T06:32:57;2.30;;;1.88;;
40501;SDS011;29631;49.168;9.848;2023-03-19T06:35:23;2.50;;;2.30;;
40501;SDS011;29631;49.168;9.848;2023-03-19T06:37:49;2.42;;;2.22;;
40501;SDS011;29631;49.168;9.848;2023-03-19T06:40:15;2.75;;;2.38;;
40501;SDS011;29631;49.168;9.848;2023-03-19T06:42:44;2.60;;;2.50;;
40501;SDS011;29631;49.168;9.848;2023-03-19T06:45:11;2.00;;;1.88;;
40501;SDS011;29631;49.168;9.848;2023-03-19T06:47:40;2.00;;;1.88;;
40501;SDS011;29631;49.168;9.848;2023-03-19T06:50:08;2.38;;;2.28;;
40501;SDS011;29631;49.168;9.848;2023-03-19T06:52:39;2.30;;;2.20;;
40501;SDS011;29631;49.168;9.848;2023-03-19T06:55:05;2.38;;;1.75;;
40501;SDS011;29631;49.168;9.848;2023-03-19T06:57:32;2.20;;;2.10;;
40501;SDS011;29631;49.168;9.848;2023-03-19T06:59:59;2.70;;;2.50;;
40501;SDS011;29631;49.168;9.848;2023-03-19T07:02:25;2.35;;;2.10;;
40501;SDS011;29631;49.168;9.848;2023-03-19T07:04:51;2.70;;;2.40;;
40501;SDS011;29631;49.168;9.848;2023-03-19T07:07:17;2.40;;;2.20;;
40501;SDS011;29631;49.168;9.848;2023-03-19T07:09:43;2.65;;;2.45;;
40501;SDS011;29631;49.168;9.848;2023-03-19T07:12:09;2.20;;;2.00;;
40501;SDS011;29631;49.168;9.848;2023-03-19T07:14:35;2.63;;;2.42;;
40501;SDS011;29631;49.168;9.848;2023-03-19T07:17:01;2.60;;;2.40;;
40501;SDS011;29631;49.168;9.848;2023-03-19T07:19:27;2.55;;;2.35;;
40501;SDS011;29631;49.168;9.848;2023-03-19T07:21:52;2.15;;;2.05;;
40501;SDS011;29631;49.168;9.848;2023-03-19T07:24:18;2.10;;;2.00;;
40501;SDS011;29631;49.168;9.848;2023-03-19T07:26:44;2.38;;;2.03;;
40501;SDS011;29631;49.168;9.848;2023-03-19T07:29:10;2.30;;;2.10;;
40501;SDS011;29631;49.168;9.848;2023-03-19T07:31:36;2.80;;;2.53;;
40501;SDS011;29631;49.168;9.848;2023-03-19T07:34:02;2.47;;;2.25;;
40501;SDS011;29631;49.168;9.848;2023-03-19T07:36:28;2.03;;;1.90;;
40501;SDS011;29631;49.168;9.848;2023-03-19T07:38:54;2.28;;;2.17;;
40501;SDS011;29631;49.168;9.848;2023-03-19T07:41:21;1.73;;;1.65;;
40501;SDS011;29631;49.168;9.848;2023-03-19T07:43:47;2.33;;;2.13;;
40501;SDS011;29631;49.168;9.848;2023-03-19T07:46:12;1.85;;;1.80;;
40501;SDS011;29631;49.168;9.848;2023-03-19T07:48:38;1.85;;;1.75;;
40501;SDS011;29631;49.168;9.848;2023-03-19T07:51:04;1.73;;;1.70;;
40501;SDS011;29631;49.168;9.848;2023-03-19T07:53:30;2.05;;;1.60;;
40501;SDS011;29631;49.168;9.848;2023-03-19T07:55:56;1.80;;;1.70;;
40501;SDS011;29631;49.168;9.848;2023-03-19T07:58:22;1.70;;;1.60;;
40501;SDS011;29631;49.168;9.848;2023-03-19T08:00:47;2.05;;;1.75;;
40501;SDS011;29631;49.168;9.848;2023-03-19T08:03:13;1.85;;;1.75;;
40501;SDS011;29631;49.168;9.848;2023-03-19T08:05:39;1.90;;;1.80;;
40501;SDS011;29631;49.168;9.848;2023-03-19T08:08:05;2.05;;;1.70;;
40501;SDS011;29631;49.168;9.848;2023-03-19T08:10:31;2.13;;;1.90;;
40501;SDS011;29631;49.168;9.848;2023-03-19T08:12:57;2.00;;;1.63;;
40501;SDS011;29631;49.168;9.848;2023-03-19T08:15:23;1.88;;;1.77;;
40501;SDS011;29631;49.168;9.848;2023-03-19T08:17:55;3.22;;;2.10;;
40501;SDS011;29631;49.168;9.848;2023-03-19T08:20:25;1.70;;;1.60;;
40501;SDS011;29631;49.168;9.848;2023-03-19T08:22:51;1.83;;;1.73;;
40501;SDS011;29631;49.168;9.848;2023-03-19T08:25:17;2.13;;;2.03;;
40501;SDS011;29631;49.168;9.848;2023-03-19T08:27:43;1.58;;;1.58;;
40501;SDS011;29631;49.168;9.848;2023-03-19T08:30:09;1.80;;;1.77;;
40501;SDS011;29631;49.168;9.848;2023-03-19T08:32:36;1.80;;;1.70;;
40501;SDS011;29631;49.168;9.848;2023-03-19T08:35:02;2.40;;;2.20;;
40501;SDS011;29631;49.168;9.848;2023-03-19T08:37:30;2.20;;;2.10;;
40501;SDS011;29631;49.168;9.848;2023-03-19T08:39:55;2.13;;;2.03;;
40501;SDS011;29631;49.168;9.848;2023-03-19T08:42:21;1.73;;;1.63;;
40501;SDS011;29631;49.168;9.848;2023-03-19T08:44:48;1.85;;;1.77;;
40501;SDS011;29631;49.168;9.848;2023-03-19T08:47:14;1.85;;;1.75;;
40501;SDS011;29631;49.168;9.848;2023-03-19T08:49:40;2.00;;;1.90;;
40501;SDS011;29631;49.168;9.848;2023-03-19T08:52:06;2.10;;;2.00;;
40501;SDS011;29631;49.168;9.848;2023-03-19T08:54:32;2.17;;;2.08;;
40501;SDS011;29631;49.168;9.848;2023-03-19T08:56:58;2.00;;;1.90;;
40501;SDS011;29631;49.168;9.848;2023-03-19T08:59:25;2.00;;;1.90;;
40501;SDS011;29631;49.168;9.848;2023-03-19T09:01:52;2.47;;;2.38;;
40501;SDS011;29631;49.168;9.848;2023-03-19T09:04:21;3.00;;;2.80;;
40501;SDS011;29631;49.168;9.848;2023-03-19T09:06:47;2.60;;;2.40;;
40501;SDS011;29631;49.168;9.848;2023-03-19T09:09:20;2.60;;;2.42;;
40501;SDS011;29631;49.168;9.848;2023-03-19T09:11:48;2.38;;;2.28;;
40501;SDS011;29631;49.168;9.848;2023-03-19T09:14:14;2.20;;;2.10;;
40501;SDS011;29631;49.168;9.848;2023-03-19T09:16:42;2.20;;;2.10;;
40501;SDS011;29631;49.168;9.848;2023-03-19T09:19:08;2.03;;;1.92;;
40501;SDS011;29631;49.168;9.848;2023-03-19T09:21:34;2.33;;;2.13;;
40501;SDS011;29631;49.168;9.848;2023-03-19T09:24:01;2.60;;;2.40;;
40501;SDS011;29631;49.168;9.848;2023-03-19T09:26:28;2.80;;;2.60;;
40501;SDS011;29631;49.168;9.848;2023-03-19T09:28:53;1.88;;;1.77;;
40501;SDS011;29631;49.168;9.848;2023-03-19T09:31:20;2.03;;;1.92;;
40501;SDS011;29631;49.168;9.848;2023-03-19T09:33:45;1.80;;;1.70;;
40501;SDS011;29631;49.168;9.848;2023-03-19T09:36:11;1.83;;;1.73;;
40501;SDS011;29631;49.168;9.848;2023-03-19T09:38:37;2.25;;;2.10;;
40501;SDS011;29631;49.168;9.848;2023-03-19T09:41:06;1.90;;;1.75;;
40501;SDS011;29631;49.168;9.848;2023-03-19T09:43:46;1.95;;;1.85;;
40501;SDS011;29631;49.168;9.848;2023-03-19T09:46:28;2.30;;;2.20;;
40501;SDS011;29631;49.168;9.848;2023-03-19T09:49:15;1.80;;;1.63;;
40501;SDS011;29631;49.168;9.848;2023-03-19T09:52:10;2.00;;;1.90;;
40501;SDS011;29631;49.168;9.848;2023-03-19T09:54:48;1.85;;;1.83;;
40501;SDS011;29631;49.168;9.848;2023-03-19T09:57:16;2.00;;;1.90;;
40501;SDS011;29631;49.168;9.848;2023-03-19T09:59:43;2.47;;;2.05;;
40501;SDS011;29631;49.168;9.848;2023-03-19T10:05:14;1.60;;;1.50;;
40501;SDS011;29631;49.168;9.848;2023-03-19T10:10:51;1.70;;;1.63;;
40501;SDS011;29631;49.168;9.848;2023-03-19T10:13:46;1.52;;;1.42;;
40501;SDS011;29631;49.168;9.848;2023-03-19T10:16:18;1.55;;;1.45;;
40501;SDS011;29631;49.168;9.848;2023-03-19T10:18:51;1.65;;;1.55;;
40501;SDS011;29631;49.168;9.848;2023-03-19T10:21:32;1.58;;;1.58;;
40501;SDS011;29631;49.168;9.848;2023-03-19T10:24:23;1.98;;;1.50;;
40501;SDS011;29631;49.168;9.848;2023-03-19T10:26:57;3.75;;;1.35;;
40501;SDS011;29631;49.168;9.848;2023-03-19T10:29:29;1.33;;;1.33;;
40501;SDS011;29631;49.168;9.848;2023-03-19T10:32:07;1.65;;;1.55;;
40501;SDS011;29631;49.168;9.848;2023-03-19T10:34:47;1.70;;;1.60;;
40501;SDS011;29631;49.168;9.848;2023-03-19T10:37:18;1.23;;;1.20;;
40501;SDS011;29631;49.168;9.848;2023-03-19T10:39:51;1.58;;;1.48;;
40501;SDS011;29631;49.168;9.848;2023-03-19T10:47:45;1.45;;;1.38;;
40501;SDS011;29631;49.168;9.848;2023-03-19T10:50:16;1.38;;;1.27;;
40501;SDS011;29631;49.168;9.848;2023-03-19T10:52:49;1.23;;;1.23;;
40501;SDS011;29631;49.168;9.848;2023-03-19T10:55:22;1.23;;;1.23;;
40501;SDS011;29631;49.168;9.848;2023-03-19T10:57:54;1.60;;;1.50;;
40501;SDS011;29631;49.168;9.848;2023-03-19T11:00:30;1.23;;;1.23;;
40501;SDS011;29631;49.168;9.848;2023-03-19T11:02:59;1.33;;;1.15;;
40501;SDS011;29631;49.168;9.848;2023-03-19T11:05:29;1.10;;;1.10;;
40501;SDS011;29631;49.168;9.848;2023-03-19T11:10:43;1.35;;;1.30;;
40501;SDS011;29631;49.168;9.848;2023-03-19T11:13:22;1.60;;;1.02;;
40501;SDS011;29631;49.168;9.848;2023-03-19T11:15:51;1.20;;;1.13;;
40501;SDS011;29631;49.168;9.848;2023-03-19T11:18:27;1.30;;;1.30;;
40501;SDS011;29631;49.168;9.848;2023-03-19T11:23:26;1.67;;;1.25;;
40501;SDS011;29631;49.168;9.848;2023-03-19T11:25:55;1.40;;;1.30;;
40501;SDS011;29631;49.168;9.848;2023-03-19T11:28:28;1.38;;;1.35;;
40501;SDS011;29631;49.168;9.848;2023-03-19T11:33:44;1.10;;;1.10;;
40501;SDS011;29631;49.168;9.848;2023-03-19T11:39:45;1.08;;;1.08;;
40501;SDS011;29631;49.168;9.848;2023-03-19T11:45:19;1.27;;;1.13;;
40501;SDS011;29631;49.168;9.848;2023-03-19T11:57:33;1.05;;;1.05;;
40501;SDS011;29631;49.168;9.848;2023-03-19T12:06:03;1.02;;;0.80;;
40501;SDS011;29631;49.168;9.848;2023-03-19T12:11:41;0.98;;;0.98;;
40501;SDS011;29631;49.168;9.848;2023-03-19T12:20:18;2.00;;;1.20;;
40501;SDS011;29631;49.168;9.848;2023-03-19T12:23:57;1.20;;;1.20;;
40501;SDS011;29631;49.168;9.848;2023-03-19T12:27:14;1.48;;;1.38;;
40501;SDS011;29631;49.168;9.848;2023-03-19T12:30:23;1.38;;;1.33;;
40501;SDS011;29631;49.168;9.848;2023-03-19T12:33:10;1.10;;;1.10;;
40501;SDS011;29631;49.168;9.848;2023-03-19T12:36:00;1.90;;;1.23;;
40501;SDS011;29631;49.168;9.848;2023-03-19T12:41:10;1.27;;;1.27;;
40501;SDS011;29631;49.168;9.848;2023-03-19T12:43:57;1.20;;;1.15;;
40501;SDS011;29631;49.168;9.848;2023-03-19T12:46:38;1.40;;;1.30;;
40501;SDS011;29631;49.168;9.848;2023-03-19T12:51:59;1.50;;;1.40;;
40501;SDS011;29631;49.168;9.848;2023-03-19T12:54:52;2.05;;;1.35;;
40501;SDS011;29631;49.168;9.848;2023-03-19T12:57:54;1.40;;;1.30;;
40501;SDS011;29631;49.168;9.848;2023-03-19T13:00:38;1.38;;;1.30;;
40501;SDS011;29631;49.168;9.848;2023-03-19T13:11:45;1.50;;;1.40;;
40501;SDS011;29631;49.168;9.848;2023-03-19T13:23:17;1.30;;;1.20;;
40501;SDS011;29631;49.168;9.848;2023-03-19T13:25:48;1.70;;;1.50;;
40501;SDS011;29631;49.168;9.848;2023-03-19T13:28:30;1.25;;;1.25;;
40501;SDS011;29631;49.168;9.848;2023-03-19T13:33:32;1.88;;;1.50;;
40501;SDS011;29631;49.168;9.848;2023-03-19T13:36:01;1.50;;;1.40;;
40501;SDS011;29631;49.168;9.848;2023-03-19T13:38:36;1.80;;;1.70;;
40501;SDS011;29631;49.168;9.848;2023-03-19T13:41:04;1.23;;;1.23;;
40501;SDS011;29631;49.168;9.848;2023-03-19T13:43:51;1.45;;;1.35;;
40501;SDS011;29631;49.168;9.848;2023-03-19T13:56:54;1.38;;;1.27;;
40501;SDS011;29631;49.168;9.848;2023-03-19T14:07:37;1.30;;;1.30;;
40501;SDS011;29631;49.168;9.848;2023-03-19T14:10:06;1.38;;;1.30;;
40501;SDS011;29631;49.168;9.848;2023-03-19T14:12:49;1.30;;;1.20;;
40501;SDS011;29631;49.168;9.848;2023-03-19T14:15:24;1.45;;;1.35;;
40501;SDS011;29631;49.168;9.848;2023-03-19T14:18:02;1.50;;;1.40;;
40501;SDS011;29631;49.168;9.848;2023-03-19T14:20:32;2.03;;;1.10;;
40501;SDS011;29631;49.168;9.848;2023-03-19T14:28:23;3.33;;;1.80;;
40501;SDS011;29631;49.168;9.848;2023-03-19T14:34:05;1.55;;;1.45;;
40501;SDS011;29631;49.168;9.848;2023-03-19T14:36:46;1.67;;;1.58;;
40501;SDS011;29631;49.168;9.848;2023-03-19T14:54:10;1.80;;;1.75;;
40501;SDS011;29631;49.168;9.848;2023-03-19T14:56:20;1.67;;;1.52;;
40501;SDS011;29631;49.168;9.848;2023-03-19T14:58:55;1.63;;;1.60;;
40501;SDS011;29631;49.168;9.848;2023-03-19T15:01:27;2.20;;;2.10;;
40501;SDS011;29631;49.168;9.848;2023-03-19T15:03:56;2.53;;;2.28;;
40501;SDS011;29631;49.168;9.848;2023-03-19T15:06:37;1.95;;;1.85;;
40501;SDS011;29631;49.168;9.848;2023-03-19T15:09:16;1.67;;;1.58;;
40501;SDS011;29631;49.168;9.848;2023-03-19T15:12:00;2.00;;;1.90;;
40501;SDS011;29631;49.168;9.848;2023-03-19T15:17:45;2.47;;;2.38;;
40501;SDS011;29631;49.168;9.848;2023-03-19T15:20:16;1.58;;;1.58;;
40501;SDS011;29631;49.168;9.848;2023-03-19T15:22:56;1.88;;;1.77;;
40501;SDS011;29631;49.168;9.848;2023-03-19T15:25:25;1.70;;;1.60;;
40501;SDS011;29631;49.168;9.848;2023-03-19T15:28:08;1.80;;;1.70;;
40501;SDS011;29631;49.168;9.848;2023-03-19T15:30:37;1.95;;;1.85;;
40501;SDS011;29631;49.168;9.848;2023-03-19T15:33:03;1.45;;;1.25;;
40501;SDS011;29631;49.168;9.848;2023-03-19T15:35:42;1.88;;;1.77;;
40501;SDS011;29631;49.168;9.848;2023-03-19T15:38:09;1.92;;;1.83;;
40501;SDS011;29631;49.168;9.848;2023-03-19T15:40:39;1.45;;;1.42;;
40501;SDS011;29631;49.168;9.848;2023-03-19T15:43:06;2.42;;;2.33;;
40501;SDS011;29631;49.168;9.848;2023-03-19T15:45:36;2.88;;;2.67;;
40501;SDS011;29631;49.168;9.848;2023-03-19T15:48:12;3.30;;;3.10;;
40501;SDS011;29631;49.168;9.848;2023-03-19T15:51:01;3.55;;;3.25;;
40501;SDS011;29631;49.168;9.848;2023-03-19T15:53:31;4.68;;;4.28;;
40501;SDS011;29631;49.168;9.848;2023-03-19T15:55:59;5.93;;;5.32;;
40501;SDS011;29631;49.168;9.848;2023-03-19T15:58:28;4.88;;;4.38;;
40501;SDS011;29631;49.168;9.848;2023-03-19T16:01:00;4.18;;;3.47;;
40501;SDS011;29631;49.168;9.848;2023-03-19T16:03:36;3.28;;;2.97;;
40501;SDS011;29631;49.168;9.848;2023-03-19T16:06:05;1.85;;;1.67;;
40501;SDS011;29631;49.168;9.848;2023-03-19T16:08:44;1.77;;;1.65;;
40501;SDS011;29631;49.168;9.848;2023-03-19T16:11:14;1.80;;;1.40;;
40501;SDS011;29631;49.168;9.848;2023-03-19T16:17:01;1.13;;;1.13;;
40501;SDS011;29631;49.168;9.848;2023-03-19T16:19:46;0.85;;;0.85;;
40501;SDS011;29631;49.168;9.848;2023-03-19T16:22:27;1.15;;;1.15;;
40501;SDS011;29631;49.168;9.848;2023-03-19T16:24:55;1.02;;;1.02;;
40501;SDS011;29631;49.168;9.848;2023-03-19T16:27:55;1.35;;;1.20;;
40501;SDS011;29631;49.168;9.848;2023-03-19T16:35:28;1.40;;;1.33;;
40501;SDS011;29631;49.168;9.848;2023-03-19T16:40:49;2.00;;;1.50;;
40501;SDS011;29631;49.168;9.848;2023-03-19T16:43:44;1.38;;;1.30;;
40501;SDS011;29631;49.168;9.848;2023-03-19T16:46:11;1.95;;;1.80;;
40501;SDS011;29631;49.168;9.848;2023-03-19T16:48:40;1.95;;;1.67;;
40501;SDS011;29631;49.168;9.848;2023-03-19T16:51:17;1.70;;;1.60;;
40501;SDS011;29631;49.168;9.848;2023-03-19T16:53:45;2.88;;;1.30;;
40501;SDS011;29631;49.168;9.848;2023-03-19T16:56:12;1.35;;;1.25;;
40501;SDS011;29631;49.168;9.848;2023-03-19T16:58:40;1.70;;;1.60;;
40501;SDS011;29631;49.168;9.848;2023-03-19T17:01:19;1.77;;;1.67;;
40501;SDS011;29631;49.168;9.848;2023-03-19T17:03:48;1.75;;;1.65;;
40501;SDS011;29631;49.168;9.848;2023-03-19T17:06:15;1.80;;;1.70;;
40501;SDS011;29631;49.168;9.848;2023-03-19T17:08:42;1.90;;;1.80;;
40501;SDS011;29631;49.168;9.848;2023-03-19T17:11:20;3.42;;;3.13;;
40501;SDS011;29631;49.168;9.848;2023-03-19T17:13:53;2.50;;;2.30;;
40501;SDS011;29631;49.168;9.848;2023-03-19T17:16:22;2.85;;;1.90;;
40501;SDS011;29631;49.168;9.848;2023-03-19T17:18:50;1.90;;;1.80;;